createdAt,value
2023-02-19T00:01:08.681Z,14.38
2023-02-19T00:03:37.685Z,13.43
2023-02-19T00:06:07.143Z,13.93
2023-02-19T00:08:36.290Z,12.98
2023-02-19T00:11:04.706Z,13.98
2023-02-19T00:13:35.502Z,15.32
2023-02-19T00:16:07.931Z,13.98
2023-02-19T00:18:35.732Z,15.77
2023-02-19T00:21:04.448Z,14.82
2023-02-19T00:23:32.272Z,15.30
2023-02-19T00:26:17.223Z,14.68
2023-02-19T00:28:46.846Z,15.90
2023-02-19T00:31:19.470Z,14.55
2023-02-19T00:33:48.436Z,15.15
2023-02-19T00:36:16.703Z,16.17
2023-02-19T00:38:45.328Z,15.45
2023-02-19T00:41:13.935Z,17.50
2023-02-19T00:43:41.466Z,16.48
2023-02-19T00:46:09.010Z,15.45
2023-02-19T00:48:38.068Z,16.42
2023-02-19T00:51:06.039Z,15.90
2023-02-19T00:53:33.653Z,16.83
2023-02-19T00:56:01.305Z,16.40
2023-02-19T00:58:29.240Z,15.85
2023-02-19T01:00:56.915Z,15.55
2023-02-19T01:03:24.785Z,15.85
2023-02-19T01:05:53.897Z,16.55
2023-02-19T01:08:21.906Z,15.52
2023-02-19T01:10:49.451Z,16.98
2023-02-19T01:13:17.171Z,15.70
2023-02-19T01:15:44.837Z,15.95
2023-02-19T01:18:12.487Z,16.38
2023-02-19T01:20:40.749Z,15.40
2023-02-19T01:23:12.375Z,15.80
2023-02-19T01:25:40.826Z,15.73
2023-02-19T01:28:09.358Z,15.73
2023-02-19T01:30:37.072Z,17.17
2023-02-19T01:33:05.017Z,15.25
2023-02-19T01:35:32.769Z,15.75
2023-02-19T01:38:00.311Z,16.38
2023-02-19T01:40:29.443Z,15.95
2023-02-19T01:42:56.936Z,15.80
2023-02-19T01:45:30.686Z,16.30
2023-02-19T01:48:10.698Z,15.10
2023-02-19T01:50:43.629Z,16.02
2023-02-19T01:53:14.746Z,15.85
2023-02-19T01:55:47.692Z,16.95
2023-02-19T01:58:16.814Z,16.92
2023-02-19T02:00:44.363Z,16.15
2023-02-19T02:03:13.934Z,15.35
2023-02-19T02:05:47.948Z,17.20
2023-02-19T02:08:16.917Z,18.13
2023-02-19T02:10:45.909Z,17.50
2023-02-19T02:13:14.160Z,16.88
2023-02-19T02:15:51.178Z,16.85
2023-02-19T02:18:28.484Z,17.70
2023-02-19T02:21:23.226Z,17.55
2023-02-19T02:24:15.538Z,17.70
2023-02-19T02:26:58.682Z,17.48
2023-02-19T02:30:04.693Z,16.95
2023-02-19T02:32:43.374Z,17.98
2023-02-19T02:35:14.009Z,17.23
2023-02-19T02:37:43.887Z,18.73
2023-02-19T02:40:13.058Z,19.85
2023-02-19T02:42:40.948Z,19.65
2023-02-19T02:45:26.882Z,19.30
2023-02-19T02:47:58.199Z,19.60
2023-02-19T02:50:31.300Z,19.20
2023-02-19T02:53:02.369Z,19.35
2023-02-19T02:55:34.522Z,20.65
2023-02-19T02:58:02.934Z,19.48
2023-02-19T03:00:34.292Z,20.05
2023-02-19T03:03:04.682Z,20.05
2023-02-19T03:05:33.030Z,20.77
2023-02-19T03:08:06.573Z,22.27
2023-02-19T03:10:39.255Z,24.38
2023-02-19T03:13:11.650Z,24.13
2023-02-19T03:15:43.816Z,23.38
2023-02-19T03:18:14.584Z,22.65
2023-02-19T03:20:46.374Z,23.40
2023-02-19T03:23:17.894Z,23.63
2023-02-19T03:25:47.843Z,22.83
2023-02-19T03:28:24.934Z,22.73
2023-02-19T03:30:55.619Z,22.52
2023-02-19T03:33:29.385Z,22.45
2023-02-19T03:36:00.856Z,22.52
2023-02-19T03:38:37.906Z,22.65
2023-02-19T03:41:12.130Z,22.95
2023-02-19T03:43:45.887Z,22.55
2023-02-19T03:46:18.180Z,23.67
2023-02-19T03:48:52.090Z,22.95
2023-02-19T03:51:33.046Z,23.63
2023-02-19T03:54:13.449Z,22.52
2023-02-19T03:59:18.896Z,23.27
2023-02-19T04:01:52.672Z,24.58
2023-02-19T04:04:27.789Z,24.17
2023-02-19T04:06:57.595Z,24.15
2023-02-19T04:09:39.839Z,24.52
2023-02-19T04:12:13.490Z,24.65
2023-02-19T04:14:47.149Z,24.08
2023-02-19T04:17:20.444Z,24.45
2023-02-19T04:19:51.668Z,24.48
2023-02-19T04:22:20.469Z,24.70
2023-02-19T04:24:50.499Z,25.37
2023-02-19T04:27:18.985Z,23.60
2023-02-19T04:29:46.542Z,24.98
2023-02-19T04:32:14.957Z,24.90
2023-02-19T04:34:42.525Z,23.73
2023-02-19T04:37:11.534Z,22.00
2023-02-19T04:39:39.185Z,22.80
2023-02-19T04:42:06.814Z,23.38
2023-02-19T04:44:34.468Z,23.17
2023-02-19T04:47:02.025Z,23.67
2023-02-19T04:49:29.762Z,21.90
2023-02-19T04:51:57.400Z,23.23
2023-02-19T04:54:27.314Z,23.25
2023-02-19T04:56:54.973Z,23.02
2023-02-19T04:59:22.845Z,24.08
2023-02-19T05:01:50.448Z,24.02
2023-02-19T05:04:18.014Z,23.60
2023-02-19T05:06:45.556Z,22.23
2023-02-19T05:09:13.107Z,22.45
2023-02-19T05:11:42.285Z,22.02
2023-02-19T05:14:09.865Z,22.58
2023-02-19T05:16:37.385Z,22.23
2023-02-19T05:19:04.989Z,21.65
2023-02-19T05:21:33.091Z,22.13
2023-02-19T05:24:00.876Z,22.60
2023-02-19T05:26:28.525Z,21.63
2023-02-19T05:28:57.809Z,22.70
2023-02-19T05:31:25.599Z,22.63
2023-02-19T05:33:55.017Z,21.38
2023-02-19T05:36:23.086Z,21.63
2023-02-19T05:38:53.077Z,22.23
2023-02-19T05:41:23.025Z,21.10
2023-02-19T05:43:50.920Z,21.17
2023-02-19T05:46:21.976Z,21.35
2023-02-19T05:48:50.628Z,21.95
2023-02-19T05:51:20.563Z,21.10
2023-02-19T05:53:48.681Z,21.77
2023-02-19T05:56:33.473Z,20.80
2023-02-19T05:59:02.358Z,20.50
2023-02-19T06:01:31.680Z,20.83
2023-02-19T06:03:59.339Z,20.73
2023-02-19T06:06:27.626Z,20.83
2023-02-19T06:08:55.240Z,21.30
2023-02-19T06:11:23.076Z,21.27
2023-02-19T06:13:50.891Z,20.55
2023-02-19T06:16:19.278Z,19.33
2023-02-19T06:18:50.137Z,20.30
2023-02-19T06:21:19.029Z,21.00
2023-02-19T06:23:46.652Z,20.45
2023-02-19T06:26:15.888Z,20.70
2023-02-19T06:28:44.050Z,20.45
2023-02-19T06:31:12.157Z,20.45
2023-02-19T06:33:40.673Z,19.92
2023-02-19T06:36:13.035Z,21.23
2023-02-19T06:38:41.250Z,20.67
2023-02-19T06:41:10.668Z,20.13
2023-02-19T06:46:07.289Z,20.17
2023-02-19T06:48:35.664Z,20.02
2023-02-19T06:51:03.429Z,23.80
2023-02-19T06:53:32.605Z,21.70
2023-02-19T06:56:01.868Z,21.85
2023-02-19T06:58:29.686Z,20.25
2023-02-19T07:00:57.346Z,20.65
2023-02-19T07:03:25.015Z,17.90
2023-02-19T07:05:52.892Z,20.30
2023-02-19T07:08:20.619Z,21.20
2023-02-19T07:10:56.736Z,20.38
2023-02-19T07:13:24.713Z,18.60
2023-02-19T07:15:52.838Z,19.27
2023-02-19T07:18:20.392Z,18.67
2023-02-19T07:20:47.917Z,20.90
2023-02-19T07:23:15.417Z,18.13
2023-02-19T07:25:43.041Z,19.17
2023-02-19T07:28:12.504Z,18.08
2023-02-19T07:30:39.995Z,19.70
2023-02-19T07:33:10.105Z,19.60
2023-02-19T07:35:38.090Z,21.15
2023-02-19T07:38:05.589Z,18.67
2023-02-19T07:40:33.110Z,20.77
2023-02-19T07:43:00.683Z,20.48
2023-02-19T07:45:29.726Z,20.55
2023-02-19T07:47:57.386Z,19.98
2023-02-19T07:50:24.925Z,19.85
2023-02-19T07:52:52.540Z,21.38
2023-02-19T07:55:20.140Z,20.88
2023-02-19T07:57:47.750Z,20.85
2023-02-19T08:00:16.155Z,20.60
2023-02-19T08:02:45.872Z,20.30
2023-02-19T08:07:40.671Z,21.15
2023-02-19T08:10:08.737Z,19.92
2023-02-19T08:12:36.335Z,20.33
2023-02-19T08:15:04.185Z,25.95
2023-02-19T08:17:31.749Z,24.98
2023-02-19T08:20:00.775Z,21.60
2023-02-19T08:22:28.285Z,21.42
2023-02-19T08:24:55.878Z,21.00
2023-02-19T08:27:23.429Z,20.55
2023-02-19T08:29:51.052Z,21.55
2023-02-19T08:32:19.133Z,21.50
2023-02-19T08:34:46.778Z,21.52
2023-02-19T08:37:15.828Z,21.65
2023-02-19T08:39:43.394Z,21.00
2023-02-19T08:42:11.008Z,21.08
2023-02-19T08:44:39.058Z,20.58
2023-02-19T08:47:06.700Z,20.55
2023-02-19T08:49:34.286Z,20.52
2023-02-19T08:52:01.801Z,19.95
2023-02-19T08:54:31.262Z,20.90
2023-02-19T08:56:59.137Z,21.55
2023-02-19T08:59:29.816Z,22.27
2023-02-19T09:01:59.173Z,20.48
2023-02-19T09:04:27.046Z,19.83
2023-02-19T09:06:54.705Z,20.83
2023-02-19T09:09:22.535Z,19.50
2023-02-19T09:11:51.724Z,19.35
2023-02-19T09:14:19.614Z,19.75
2023-02-19T09:16:47.426Z,19.40
2023-02-19T09:19:15.002Z,18.30
2023-02-19T09:21:43.622Z,18.67
2023-02-19T09:24:11.165Z,20.23
2023-02-19T09:26:38.829Z,19.65
2023-02-19T09:29:07.810Z,20.00
2023-02-19T09:31:36.042Z,19.40
2023-02-19T09:34:03.853Z,29.75
2023-02-19T09:36:31.383Z,23.95
2023-02-19T09:38:59.177Z,23.35
2023-02-19T09:41:29.978Z,23.00
2023-02-19T09:43:59.091Z,22.00
2023-02-19T09:46:32.558Z,21.63
2023-02-19T09:49:07.130Z,21.92
2023-02-19T09:51:37.997Z,21.10
2023-02-19T09:54:12.104Z,21.58
2023-02-19T09:56:39.884Z,21.98
2023-02-19T09:59:15.193Z,20.98
2023-02-19T10:01:45.288Z,19.27
2023-02-19T10:04:13.091Z,21.20
2023-02-19T10:06:40.810Z,21.67
2023-02-19T10:09:19.772Z,20.80
2023-02-19T10:11:48.838Z,23.75
2023-02-19T10:14:19.708Z,21.73
2023-02-19T10:16:50.461Z,20.83
2023-02-19T10:19:18.037Z,19.98
2023-02-19T10:21:46.239Z,24.73
2023-02-19T10:24:20.675Z,21.33
2023-02-19T10:26:49.737Z,19.63
2023-02-19T10:29:17.228Z,21.13
2023-02-19T10:31:45.188Z,21.50
2023-02-19T10:34:20.435Z,20.77
2023-02-19T10:36:49.953Z,50.08
2023-02-19T10:39:41.393Z,31.50
2023-02-19T10:42:16.178Z,29.58
2023-02-19T10:44:46.676Z,22.52
2023-02-19T10:47:19.446Z,22.42
2023-02-19T10:49:50.237Z,23.20
2023-02-19T10:52:21.977Z,23.95
2023-02-19T10:54:52.325Z,22.60
2023-02-19T10:57:30.546Z,56.47
2023-02-19T11:00:00.044Z,23.42
2023-02-19T11:02:29.084Z,22.33
2023-02-19T11:05:15.243Z,22.05
2023-02-19T11:07:46.392Z,22.65
2023-02-19T11:10:28.753Z,23.00
2023-02-19T11:12:59.500Z,21.20
2023-02-19T11:15:30.823Z,23.00
2023-02-19T11:18:01.318Z,23.80
2023-02-19T11:20:30.820Z,25.92
2023-02-19T11:23:01.500Z,24.23
2023-02-19T11:25:30.193Z,23.95
2023-02-19T11:28:00.956Z,23.50
2023-02-19T11:30:42.059Z,22.15
2023-02-19T11:33:25.058Z,30.27
2023-02-19T11:36:00.570Z,24.92
2023-02-19T11:38:28.676Z,23.85
2023-02-19T11:41:08.753Z,24.05
2023-02-19T11:43:57.268Z,21.73
2023-02-19T11:46:37.819Z,23.33
2023-02-19T11:49:19.520Z,23.55
2023-02-19T11:52:12.062Z,23.27
2023-02-19T11:54:48.288Z,21.88
2023-02-19T11:57:29.065Z,21.13
2023-02-19T12:00:04.067Z,22.75
2023-02-19T12:02:57.139Z,27.50
2023-02-19T12:05:38.742Z,31.67
2023-02-19T12:08:39.293Z,25.58
2023-02-19T12:11:21.393Z,29.58
2023-02-19T12:14:05.306Z,24.85
2023-02-19T12:16:40.436Z,22.95
2023-02-19T12:19:38.748Z,21.77
2023-02-19T12:22:19.326Z,22.48
2023-02-19T12:25:08.008Z,25.98
2023-02-19T12:27:49.432Z,25.05
2023-02-19T12:30:36.311Z,24.65
2023-02-19T12:33:42.231Z,24.88
2023-02-19T12:36:21.381Z,24.38
2023-02-19T12:38:56.273Z,26.63
2023-02-19T12:41:39.270Z,23.00
2023-02-19T12:44:12.407Z,22.02
2023-02-19T12:46:45.314Z,20.50
2023-02-19T12:49:18.774Z,20.40
2023-02-19T12:51:49.065Z,21.15
2023-02-19T12:54:21.690Z,21.67
2023-02-19T12:56:58.061Z,24.77
2023-02-19T12:59:32.079Z,27.92
2023-02-19T13:02:06.724Z,22.98
2023-02-19T13:04:45.661Z,21.58
2023-02-19T13:07:17.076Z,21.87
2023-02-19T13:09:49.546Z,23.17
2023-02-19T13:12:24.807Z,22.55
2023-02-19T13:14:57.161Z,23.67
2023-02-19T13:17:29.709Z,21.73
2023-02-19T13:20:00.510Z,20.67
2023-02-19T13:22:35.657Z,19.92
2023-02-19T13:25:05.348Z,19.42
2023-02-19T13:30:41.376Z,19.92
2023-02-19T13:33:30.935Z,21.88
2023-02-19T13:36:22.356Z,25.65
2023-02-19T13:38:50.752Z,24.95
2023-02-19T13:41:21.734Z,23.80
2023-02-19T13:43:58.527Z,21.70
2023-02-19T13:46:33.443Z,21.83
2023-02-19T13:49:38.850Z,21.42
2023-02-19T13:52:50.647Z,19.60
2023-02-19T13:55:50.620Z,20.33
2023-02-19T13:58:57.056Z,18.77
2023-02-19T14:02:13.434Z,18.08
2023-02-19T14:04:47.673Z,18.50
2023-02-19T14:08:02.314Z,18.85
2023-02-19T14:10:52.864Z,17.92
2023-02-19T14:13:53.784Z,18.70
2023-02-19T14:16:48.865Z,17.67
2023-02-19T14:19:34.694Z,18.15
2023-02-19T14:22:02.552Z,19.70
2023-02-19T14:24:30.516Z,19.33
2023-02-19T14:26:58.725Z,17.65
2023-02-19T14:29:29.437Z,18.52
2023-02-19T14:31:58.756Z,17.73
2023-02-19T14:34:26.509Z,17.05
2023-02-19T14:36:55.572Z,17.65
2023-02-19T14:39:25.708Z,17.25
2023-02-19T14:41:56.681Z,17.70
2023-02-19T14:44:27.232Z,18.10
2023-02-19T14:47:03.205Z,17.02
2023-02-19T14:49:37.011Z,17.52
2023-02-19T14:52:08.768Z,17.88
2023-02-19T14:54:43.560Z,17.77
2023-02-19T14:57:17.469Z,17.23
2023-02-19T14:59:54.058Z,17.35
2023-02-19T15:02:23.241Z,16.45
2023-02-19T15:04:50.804Z,17.15
2023-02-19T15:07:22.806Z,17.02
2023-02-19T15:09:53.438Z,16.85
2023-02-19T15:12:25.188Z,17.00
2023-02-19T15:14:56.677Z,18.15
2023-02-19T15:17:29.553Z,17.08
2023-02-19T15:19:59.094Z,17.38
2023-02-19T15:24:55.321Z,16.63
2023-02-19T15:27:24.743Z,15.73
2023-02-19T15:29:54.615Z,17.10
2023-02-19T15:32:24.143Z,15.50
2023-02-19T15:34:58.253Z,15.98
2023-02-19T15:37:28.168Z,16.23
2023-02-19T15:39:58.042Z,15.23
2023-02-19T15:42:28.721Z,15.25
2023-02-19T15:45:01.082Z,16.73
2023-02-19T15:47:34.080Z,16.60
2023-02-19T15:50:08.090Z,16.85
2023-02-19T15:52:43.901Z,16.45
2023-02-19T15:55:29.559Z,16.23
2023-02-19T15:58:04.781Z,16.67
2023-02-19T16:00:38.415Z,16.73
2023-02-19T16:03:14.140Z,17.02
2023-02-19T16:05:43.762Z,16.23
2023-02-19T16:08:20.293Z,16.58
2023-02-19T16:10:56.144Z,15.93
2023-02-19T16:13:26.186Z,15.95
2023-02-19T16:16:03.464Z,15.85
2023-02-19T16:18:31.580Z,15.30
2023-02-19T16:21:06.188Z,16.20
2023-02-19T16:23:34.286Z,16.35
2023-02-19T16:26:03.134Z,14.93
2023-02-19T16:28:37.517Z,15.52
2023-02-19T16:31:07.449Z,16.85
2023-02-19T16:33:39.298Z,14.43
2023-02-19T16:36:39.216Z,15.60
2023-02-19T16:39:26.249Z,16.75
2023-02-19T16:42:15.278Z,15.73
2023-02-19T16:44:44.463Z,15.85
2023-02-19T16:47:23.394Z,15.65
2023-02-19T16:49:52.146Z,16.27
2023-02-19T16:52:21.308Z,16.40
2023-02-19T16:57:18.046Z,14.70
2023-02-19T16:59:45.506Z,16.38
2023-02-19T17:02:18.159Z,15.98
2023-02-19T17:04:48.138Z,15.52
2023-02-19T17:07:17.375Z,15.77
2023-02-19T17:09:46.475Z,15.90
2023-02-19T17:12:16.047Z,16.05
2023-02-19T17:17:11.349Z,15.23
2023-02-19T17:19:39.579Z,15.45
2023-02-19T17:22:07.904Z,15.45
2023-02-19T17:24:35.534Z,15.27
2023-02-19T17:27:04.822Z,14.65
2023-02-19T17:29:35.529Z,15.55
2023-02-19T17:32:04.001Z,14.68
2023-02-19T17:34:31.822Z,15.57
2023-02-19T17:36:59.925Z,15.57
2023-02-19T17:39:27.746Z,15.75
2023-02-19T17:41:55.259Z,14.90
2023-02-19T17:44:24.360Z,14.57
2023-02-19T17:46:51.886Z,15.60
2023-02-19T17:49:19.429Z,14.93
2023-02-19T17:51:47.517Z,14.45
2023-02-19T17:54:15.843Z,13.90
2023-02-19T17:56:43.896Z,14.85
2023-02-19T17:59:11.484Z,14.60
2023-02-19T18:01:40.973Z,15.65
2023-02-19T18:04:08.697Z,15.20
2023-02-19T18:06:36.330Z,14.75
2023-02-19T18:09:04.332Z,14.63
2023-02-19T18:11:31.909Z,14.93
2023-02-19T18:13:59.566Z,14.60
2023-02-19T18:16:27.402Z,15.38
2023-02-19T18:18:56.457Z,15.32
2023-02-19T18:21:24.651Z,15.05
2023-02-19T18:23:52.216Z,14.98
2023-02-19T18:26:20.932Z,14.98
2023-02-19T18:28:48.553Z,15.20
2023-02-19T18:31:16.350Z,15.48
2023-02-19T18:33:44.036Z,15.40
2023-02-19T18:36:13.414Z,14.57
2023-02-19T18:38:41.118Z,14.55
2023-02-19T18:41:12.504Z,14.55
2023-02-19T18:43:41.189Z,14.93
2023-02-19T18:46:09.765Z,14.93
2023-02-19T18:48:37.478Z,14.85
2023-02-19T18:51:05.832Z,15.45
2023-02-19T18:53:34.973Z,15.13
2023-02-19T18:56:02.642Z,14.88
2023-02-19T18:58:30.261Z,14.65
2023-02-19T19:00:57.905Z,14.57
2023-02-19T19:03:25.586Z,14.45
2023-02-19T19:05:53.105Z,14.68
2023-02-19T19:08:21.158Z,15.45
2023-02-19T19:10:50.090Z,15.38
2023-02-19T19:13:17.772Z,15.52
2023-02-19T19:15:50.438Z,14.50
2023-02-19T19:18:18.095Z,14.77
2023-02-19T19:20:45.743Z,14.30
2023-02-19T19:23:13.535Z,14.75
2023-02-19T19:25:41.096Z,14.85
2023-02-19T19:28:10.586Z,14.80
2023-02-19T19:30:38.214Z,14.45
2023-02-19T19:33:05.837Z,13.95
2023-02-19T19:35:33.484Z,14.65
2023-02-19T19:38:01.042Z,13.65
2023-02-19T19:40:28.643Z,15.15
2023-02-19T19:42:56.198Z,14.10
2023-02-19T19:45:25.478Z,13.93
2023-02-19T19:47:53.085Z,14.57
2023-02-19T19:50:20.887Z,13.80
2023-02-19T19:52:48.464Z,14.90
2023-02-19T19:55:16.236Z,13.70
2023-02-19T19:57:43.818Z,14.27
2023-02-19T20:00:14.934Z,14.85
2023-02-19T20:02:44.332Z,14.52
2023-02-19T20:05:12.024Z,14.70
2023-02-19T20:07:40.030Z,13.95
2023-02-19T20:10:08.545Z,15.02
2023-02-19T20:12:36.662Z,14.52
2023-02-19T20:15:04.840Z,13.63
2023-02-19T20:17:32.897Z,14.57
2023-02-19T20:20:02.557Z,15.25
2023-02-19T20:22:30.593Z,15.50
2023-02-19T20:24:58.739Z,15.18
2023-02-19T20:27:26.327Z,16.17
2023-02-19T20:29:53.917Z,15.88
2023-02-19T20:32:21.616Z,15.27
2023-02-19T20:34:49.190Z,16.23
2023-02-19T20:37:18.235Z,15.80
2023-02-19T20:39:45.935Z,15.85
2023-02-19T20:42:16.594Z,16.70
2023-02-19T20:44:44.664Z,16.20
2023-02-19T20:47:12.208Z,17.33
2023-02-19T20:49:43.898Z,16.95
2023-02-19T20:52:11.762Z,15.35
2023-02-19T20:54:40.762Z,17.17
2023-02-19T20:57:08.615Z,16.67
2023-02-19T20:59:36.470Z,16.48
2023-02-19T21:02:05.943Z,16.33
2023-02-19T21:04:33.942Z,16.83
2023-02-19T21:07:01.464Z,15.98
2023-02-19T21:09:29.256Z,16.75
2023-02-19T21:11:58.542Z,15.48
2023-02-19T21:14:26.108Z,16.33
2023-02-19T21:16:53.914Z,17.42
2023-02-19T21:19:22.018Z,17.58
2023-02-19T21:21:49.595Z,16.73
2023-02-19T21:24:17.593Z,16.45
2023-02-19T21:26:45.966Z,16.63
2023-02-19T21:29:18.496Z,16.33
2023-02-19T21:31:48.118Z,17.02
2023-02-19T21:36:43.750Z,16.60
2023-02-19T21:39:13.960Z,16.23
2023-02-19T21:41:41.558Z,15.90
2023-02-19T21:44:09.210Z,17.23
2023-02-19T21:46:38.688Z,15.43
2023-02-19T21:49:06.718Z,15.95
2023-02-19T21:51:36.484Z,16.83
2023-02-19T21:54:04.706Z,16.48
2023-02-19T21:56:36.232Z,16.00
2023-02-19T21:59:04.929Z,16.38
2023-02-19T22:01:34.612Z,16.85
2023-02-19T22:06:32.038Z,16.27
2023-02-19T22:09:00.096Z,16.13
2023-02-19T22:11:28.060Z,16.02
2023-02-19T22:13:56.143Z,16.83
2023-02-19T22:16:24.051Z,16.30
2023-02-19T22:18:54.256Z,16.05
2023-02-19T22:21:25.936Z,15.50
2023-02-19T22:23:55.369Z,16.73
2023-02-19T22:26:25.189Z,16.08
2023-02-19T22:28:52.841Z,16.35
2023-02-19T22:31:22.720Z,15.77
2023-02-19T22:33:51.021Z,15.95
2023-02-19T22:36:20.941Z,15.38
2023-02-19T22:38:50.457Z,15.70
2023-02-19T22:41:18.813Z,15.68
2023-02-19T22:43:46.929Z,16.05
2023-02-19T22:46:17.511Z,16.83
2023-02-19T22:48:45.293Z,17.27
2023-02-19T22:51:15.391Z,16.98
2023-02-19T22:53:44.298Z,16.95
2023-02-19T22:56:14.749Z,16.85
2023-02-19T22:58:42.873Z,16.30
2023-02-19T23:01:11.141Z,16.60
2023-02-19T23:03:45.947Z,16.05
2023-02-19T23:06:13.791Z,17.05
2023-02-19T23:08:41.704Z,17.02
2023-02-19T23:11:09.609Z,16.92
2023-02-19T23:13:38.729Z,17.38
2023-02-19T23:16:06.384Z,16.08
2023-02-19T23:18:33.898Z,17.67
2023-02-19T23:21:01.419Z,16.58
2023-02-19T23:23:28.892Z,16.48
2023-02-19T23:25:57.028Z,16.65
2023-02-19T23:28:24.567Z,15.80
2023-02-19T23:30:54.388Z,17.38
2023-02-19T23:35:49.653Z,16.08
2023-02-19T23:38:17.786Z,16.83
2023-02-19T23:40:45.830Z,16.13
2023-02-19T23:43:13.912Z,16.38
2023-02-19T23:45:41.608Z,16.38
2023-02-19T23:48:10.708Z,16.48
2023-02-19T23:50:38.229Z,16.55
2023-02-19T23:53:06.110Z,15.73
2023-02-19T23:55:33.695Z,15.80
2023-02-19T23:58:01.309Z,15.10
